createdAt,value
2022-09-23T04:00:35.046Z,4.20
2022-09-23T04:05:34.901Z,4.10
2022-09-23T04:10:34.840Z,5.30
2022-09-23T04:15:41.858Z,2.00
2022-09-23T04:20:34.746Z,2.70
2022-09-23T04:25:34.685Z,3.20
2022-09-23T04:30:34.626Z,2.70
2022-09-23T04:35:39.360Z,2.10
2022-09-23T04:40:35.607Z,3.30
2022-09-23T04:45:34.470Z,2.10
2022-09-23T04:50:34.411Z,3.30
2022-09-23T04:55:34.379Z,4.00
2022-09-23T05:00:34.342Z,3.20
2022-09-23T05:05:34.251Z,1.90
2022-09-23T05:10:34.199Z,5.80
2022-09-23T05:15:34.197Z,2.40
2022-09-23T05:20:34.095Z,4.50
2022-09-23T05:25:38.086Z,2.30
2022-09-23T05:30:33.981Z,5.10
2022-09-23T05:35:33.959Z,3.00
2022-09-23T05:40:33.963Z,3.20
2022-09-23T05:45:33.822Z,2.40
2022-09-23T05:50:33.766Z,6.00
2022-09-23T05:55:33.734Z,2.00
2022-09-23T06:00:33.667Z,4.10
2022-09-23T06:05:33.605Z,2.80
2022-09-23T06:10:33.561Z,3.70
2022-09-23T06:15:33.522Z,3.10
2022-09-23T06:20:33.443Z,2.70
2022-09-23T06:25:33.396Z,2.40
2022-09-23T06:30:33.472Z,2.80
2022-09-23T06:35:33.400Z,2.00
2022-09-23T06:40:33.281Z,4.30
2022-09-23T06:45:33.165Z,4.50
2022-09-23T06:50:33.124Z,5.70
2022-09-23T06:55:33.093Z,2.20
2022-09-23T07:00:33.266Z,2.10
2022-09-23T07:05:32.959Z,1.90
2022-09-23T07:10:32.901Z,2.60
2022-09-23T07:15:32.988Z,2.50
2022-09-23T07:20:32.801Z,2.70
2022-09-23T07:25:32.743Z,4.00
2022-09-23T07:30:32.760Z,1.70
2022-09-23T07:35:32.653Z,3.50
2022-09-23T07:40:32.647Z,3.90
2022-09-23T07:45:32.525Z,1.80
2022-09-23T07:50:32.472Z,1.40
2022-09-23T07:55:32.436Z,3.00
2022-09-23T08:00:32.362Z,2.60
2022-09-23T08:05:32.330Z,1.60
2022-09-23T08:10:32.255Z,3.60
2022-09-23T08:15:32.261Z,2.10
2022-09-23T08:20:32.150Z,2.60
2022-09-23T08:25:34.631Z,3.20
2022-09-23T08:30:32.039Z,2.80
2022-09-23T08:35:32.002Z,2.40
2022-09-23T08:40:31.980Z,2.20
2022-09-23T08:45:31.872Z,3.00
2022-09-23T08:50:31.820Z,4.10
2022-09-23T08:55:31.785Z,1.90
2022-09-23T09:00:31.714Z,2.60
2022-09-23T09:05:31.652Z,2.20
2022-09-23T09:10:31.601Z,1.90
2022-09-23T09:15:31.620Z,2.30
2022-09-23T09:20:31.514Z,3.90
2022-09-23T09:25:34.138Z,2.30
2022-09-23T09:30:31.391Z,2.80
2022-09-23T09:35:31.396Z,1.60
2022-09-23T09:40:31.356Z,2.90
2022-09-23T09:45:33.516Z,3.30
2022-09-23T09:50:31.170Z,1.50
2022-09-23T09:55:31.097Z,2.00
2022-09-23T10:00:31.009Z,2.90
2022-09-23T10:05:30.954Z,2.10
2022-09-23T10:10:33.162Z,3.50
2022-09-23T10:15:42.426Z,3.90
2022-09-23T10:20:31.791Z,2.20
2022-09-23T10:25:30.736Z,2.60
2022-09-23T10:30:30.750Z,3.40
2022-09-23T10:35:30.772Z,3.40
2022-09-23T10:40:30.796Z,3.10
2022-09-23T10:45:30.526Z,4.20
2022-09-23T10:50:30.470Z,3.00
2022-09-23T10:55:30.444Z,3.50
2022-09-23T11:00:30.368Z,2.70
2022-09-23T11:05:30.314Z,3.60
2022-09-23T11:10:45.650Z,5.10
2022-09-23T11:15:31.224Z,2.40
2022-09-23T11:20:30.159Z,4.50
2022-09-23T11:25:30.105Z,4.00
2022-09-23T11:30:30.127Z,2.50
2022-09-23T11:35:30.018Z,1.70
2022-09-23T11:40:29.996Z,2.90
2022-09-23T11:45:29.889Z,2.80
2022-09-23T11:50:29.835Z,2.80
2022-09-23T11:55:29.798Z,2.80
2022-09-23T12:00:29.726Z,2.60
2022-09-23T12:05:29.852Z,1.80
2022-09-23T12:10:29.617Z,3.20
2022-09-23T12:15:29.594Z,2.40
2022-09-23T12:20:29.523Z,6.00
2022-09-23T12:25:29.468Z,3.60
2022-09-23T12:30:29.439Z,3.10
2022-09-23T12:35:29.476Z,4.60
2022-09-23T12:40:29.349Z,3.20
2022-09-23T12:45:29.255Z,2.80
2022-09-23T12:50:29.199Z,3.70
2022-09-23T12:55:29.161Z,3.50
2022-09-23T13:00:34.095Z,3.20
2022-09-23T13:05:30.040Z,3.50
2022-09-23T13:10:28.973Z,3.70
2022-09-23T13:15:28.949Z,3.30
2022-09-23T13:20:28.863Z,2.30
2022-09-23T13:25:28.835Z,2.20
2022-09-23T13:30:28.752Z,2.80
2022-09-23T13:35:28.742Z,2.60
2022-09-23T13:40:28.743Z,2.70
2022-09-23T13:45:28.692Z,2.60
2022-09-23T13:50:31.604Z,2.60
2022-09-23T13:55:29.545Z,2.20
2022-09-23T14:00:28.430Z,3.40
2022-09-23T14:05:28.404Z,4.80
2022-09-23T14:10:28.322Z,5.20
2022-09-23T14:15:28.416Z,4.30
2022-09-23T14:20:28.224Z,2.90
2022-09-23T14:25:28.196Z,5.70
2022-09-23T14:30:28.119Z,5.30
2022-09-23T14:35:28.112Z,5.30
2022-09-23T14:40:28.120Z,3.30
2022-09-23T14:45:27.990Z,2.90
2022-09-23T14:50:27.925Z,4.30
2022-09-23T14:55:27.882Z,4.10
2022-09-23T15:00:27.815Z,3.30
2022-09-23T15:05:27.774Z,3.90
2022-09-23T15:10:27.698Z,4.60
2022-09-23T15:15:27.680Z,1.70
2022-09-23T15:20:27.628Z,4.00
2022-09-23T15:25:27.537Z,3.90
2022-09-23T15:30:27.497Z,3.50
2022-09-23T15:35:27.480Z,1.60
2022-09-23T15:40:27.525Z,3.20
2022-09-23T15:45:27.443Z,3.90
2022-09-23T15:50:27.298Z,2.60
2022-09-23T15:55:27.281Z,6.30
2022-09-23T16:00:27.169Z,1.80
2022-09-23T16:05:27.127Z,3.70
2022-09-23T16:10:27.051Z,3.00
2022-09-23T16:15:34.068Z,2.00
2022-09-23T16:20:26.943Z,2.70
2022-09-23T16:25:26.906Z,7.10
2022-09-23T16:30:26.848Z,3.20
2022-09-23T16:35:26.811Z,2.30
2022-09-23T16:40:26.798Z,2.20
2022-09-23T16:45:26.689Z,1.40
2022-09-23T16:50:26.644Z,1.90
2022-09-23T16:55:26.587Z,2.20
2022-09-23T17:00:26.586Z,3.80
2022-09-23T17:05:26.477Z,2.60
2022-09-23T17:10:26.416Z,4.30
2022-09-23T17:15:26.376Z,2.90
2022-09-23T17:20:26.327Z,3.70
2022-09-23T17:25:26.611Z,3.10
2022-09-23T17:30:26.187Z,3.50
2022-09-23T17:35:26.184Z,2.90
2022-09-23T17:40:26.195Z,3.40
2022-09-23T17:45:26.130Z,3.80
2022-09-23T17:50:25.983Z,3.20
2022-09-23T17:55:25.944Z,3.50
2022-09-23T18:00:25.874Z,3.90
2022-09-23T18:05:25.823Z,6.10
2022-09-23T18:10:25.771Z,6.80
2022-09-23T18:15:25.729Z,4.10
2022-09-23T18:20:25.664Z,3.20
2022-09-23T18:25:38.689Z,3.80
2022-09-23T18:30:26.545Z,5.70
2022-09-23T18:35:25.509Z,3.10
2022-09-23T18:40:25.490Z,4.80
2022-09-23T18:45:25.419Z,3.80
2022-09-23T18:50:25.323Z,4.40
2022-09-23T18:55:25.292Z,4.90
2022-09-23T19:00:25.261Z,5.50
2022-09-23T19:05:25.162Z,4.70
2022-09-23T19:10:25.103Z,3.60
2022-09-23T19:15:25.066Z,7.30
2022-09-23T19:20:25.002Z,5.40
2022-09-23T19:25:24.927Z,5.40
2022-09-23T19:30:24.906Z,5.60
2022-09-23T19:35:24.860Z,4.30
2022-09-23T19:40:24.803Z,5.90
2022-09-23T19:45:24.717Z,6.00
2022-09-23T19:50:24.660Z,5.30
2022-09-23T19:55:24.616Z,6.50
2022-09-23T20:00:24.553Z,5.10
2022-09-23T20:05:24.508Z,6.80
2022-09-23T20:10:24.429Z,7.60
2022-09-23T20:15:24.404Z,8.80
2022-09-23T20:20:24.341Z,6.90
2022-09-23T20:25:24.269Z,10.30
2022-09-23T20:30:24.238Z,10.40
2022-09-23T20:35:24.194Z,9.10
2022-09-23T20:40:24.130Z,7.90
2022-09-23T20:45:24.059Z,8.60
2022-09-23T20:50:24.008Z,7.90
2022-09-23T20:55:23.959Z,6.20
2022-09-23T21:00:23.893Z,7.00
2022-09-23T21:05:23.842Z,6.40
2022-09-23T21:10:23.766Z,7.50
2022-09-23T21:15:23.748Z,4.40
2022-09-23T21:20:23.688Z,8.40
2022-09-23T21:25:28.510Z,6.10
2022-09-23T21:30:24.566Z,6.70
2022-09-23T21:35:23.581Z,8.00
2022-09-23T21:40:23.525Z,10.30
2022-09-23T21:45:23.383Z,9.20
2022-09-23T21:50:23.339Z,8.00
2022-09-23T21:55:23.298Z,9.80
2022-09-23T22:00:23.222Z,10.10
2022-09-23T22:05:23.176Z,7.20
2022-09-23T22:10:23.120Z,7.50
2022-09-23T22:15:23.074Z,7.10
2022-09-23T22:20:30.066Z,8.00
2022-09-23T22:25:22.943Z,7.90
2022-09-23T22:30:22.903Z,10.00
2022-09-23T22:35:22.865Z,9.80
2022-09-23T22:40:22.853Z,7.40
2022-09-23T22:45:22.737Z,9.60
2022-09-23T22:50:22.682Z,6.40
2022-09-23T22:55:22.643Z,8.50
2022-09-23T23:00:22.594Z,8.80
2022-09-23T23:05:22.523Z,9.50
2022-09-23T23:10:22.466Z,10.40
2022-09-23T23:15:22.429Z,8.20
2022-09-23T23:20:22.360Z,11.00
2022-09-23T23:25:22.289Z,9.90
